KEGE/EGE METAR and TAF weather

Enter ICAO airport designator
Station Type Date Time Source
KEGE METAR 2019/10/21 22:56 UTC NOAA

KEGE 212256Z 23018KT 10SM SCT060 BKN075 BKN100 05/M06 A3018 RMK AO2 WSHFT 2205 SLP243 T00501056


Station Type Date Time Source
KEGE Decoded METAR 2019/10/21 22:56 UTC NOAA

Eagle County Regional, CO, United States (KEGE) 39-39N 106-55W
Oct 21, 2019 - 06:56 PM EDT / 2019.10.21 2256 UTC
Wind: from the SW (230 degrees) at 21 MPH (18 KT):0
Visibility: 10 mile(s):0
Sky conditions: mostly cloudy
Temperature: 41.0 F (5.0 C)
Dew Point: 21.9 F (-5.6 C)
Relative Humidity: 46%
Pressure (altimeter): 30.18 in. Hg (1022 hPa)
ob: KEGE 212256Z 23018KT 10SM SCT060 BKN075 BKN100 05/M06 A3018 RMK AO2 WSHFT 2205 SLP243 T00501056
cycle: 23

Station Type Date Time Source
KEGE TAF 2019/10/21 18:45 UTC NOAA

TAF KEGE 211741Z 2118/2218 23015KT P6SM VCSH BKN040 OVC050
FM212000 26013G22KT P6SM SCT080
FM220100 26010KT P6SM FEW100
FM220500 20005KT P6SM FEW120

Example: see airport list